sensor_id;sensor_type;location;lat;lon;timestamp;pressure;altitude;pressure_sealevel;temperature;humidity
34328;BME280;20588;48.840;10.064;2023-08-01T00:00:07;95566.78;;;17.88;100.00
34328;BME280;20588;48.840;10.064;2023-08-01T00:02:34;95575.44;;;17.83;100.00
34328;BME280;20588;48.840;10.064;2023-08-01T00:05:00;95571.84;;;17.79;100.00
34328;BME280;20588;48.840;10.064;2023-08-01T00:07:28;95569.72;;;17.81;100.00
34328;BME280;20588;48.840;10.064;2023-08-01T00:09:54;95565.91;;;17.74;100.00
34328;BME280;20588;48.840;10.064;2023-08-01T00:12:20;95564.34;;;17.73;100.00
34328;BME280;20588;48.840;10.064;2023-08-01T00:14:46;95559.94;;;17.73;100.00
34328;BME280;20588;48.840;10.064;2023-08-01T00:17:12;95556.56;;;17.73;100.00
34328;BME280;20588;48.840;10.064;2023-08-01T00:19:38;95546.69;;;17.70;100.00
34328;BME280;20588;48.840;10.064;2023-08-01T00:22:04;95546.69;;;17.70;100.00
34328;BME280;20588;48.840;10.064;2023-08-01T00:24:30;95544.88;;;17.70;100.00
34328;BME280;20588;48.840;10.064;2023-08-01T00:26:56;95547.75;;;17.69;100.00
34328;BME280;20588;48.840;10.064;2023-08-01T00:29:23;95547.25;;;17.67;100.00
34328;BME280;20588;48.840;10.064;2023-08-01T00:31:49;95547.53;;;17.65;100.00
34328;BME280;20588;48.840;10.064;2023-08-01T00:34:15;95541.81;;;17.63;100.00
34328;BME280;20588;48.840;10.064;2023-08-01T00:36:41;95533.25;;;17.63;100.00
34328;BME280;20588;48.840;10.064;2023-08-01T00:39:07;95535.34;;;17.61;100.00
34328;BME280;20588;48.840;10.064;2023-08-01T00:41:33;95533.78;;;17.60;100.00
34328;BME280;20588;48.840;10.064;2023-08-01T00:43:59;95527.81;;;17.59;100.00
34328;BME280;20588;48.840;10.064;2023-08-01T00:46:25;95523.66;;;17.58;100.00
34328;BME280;20588;48.840;10.064;2023-08-01T00:48:52;95521.31;;;17.57;100.00
34328;BME280;20588;48.840;10.064;2023-08-01T00:51:19;95517.69;;;17.58;100.00
34328;BME280;20588;48.840;10.064;2023-08-01T00:53:45;95515.66;;;17.55;100.00
34328;BME280;20588;48.840;10.064;2023-08-01T00:56:12;95515.91;;;17.53;100.00
34328;BME280;20588;48.840;10.064;2023-08-01T00:58:39;95509.16;;;17.52;100.00
34328;BME280;20588;48.840;10.064;2023-08-01T01:01:05;95512.03;;;17.51;100.00
34328;BME280;20588;48.840;10.064;2023-08-01T01:03:31;95499.25;;;17.54;100.00
34328;BME280;20588;48.840;10.064;2023-08-01T01:06:13;95499.28;;;17.49;100.00
34328;BME280;20588;48.840;10.064;2023-08-01T01:08:43;95487.63;;;17.47;100.00
34328;BME280;20588;48.840;10.064;2023-08-01T01:11:09;95479.81;;;17.47;100.00
34328;BME280;20588;48.840;10.064;2023-08-01T01:13:35;95474.13;;;17.45;100.00
34328;BME280;20588;48.840;10.064;2023-08-01T01:16:02;95472.72;;;17.52;100.00
34328;BME280;20588;48.840;10.064;2023-08-01T01:18:28;95460.59;;;17.43;100.00
34328;BME280;20588;48.840;10.064;2023-08-01T01:20:54;95451.78;;;17.39;100.00
34328;BME280;20588;48.840;10.064;2023-08-01T01:23:22;95450.81;;;17.35;100.00
34328;BME280;20588;48.840;10.064;2023-08-01T01:25:49;95439.69;;;17.29;100.00
34328;BME280;20588;48.840;10.064;2023-08-01T01:28:18;95435.81;;;17.27;100.00
34328;BME280;20588;48.840;10.064;2023-08-01T01:30:45;95431.44;;;17.22;100.00
34328;BME280;20588;48.840;10.064;2023-08-01T01:33:12;95423.44;;;17.19;100.00
34328;BME280;20588;48.840;10.064;2023-08-01T01:35:38;95415.69;;;17.14;100.00
34328;BME280;20588;48.840;10.064;2023-08-01T01:38:04;95420.09;;;17.13;100.00
34328;BME280;20588;48.840;10.064;2023-08-01T01:40:31;95414.16;;;17.13;100.00
34328;BME280;20588;48.840;10.064;2023-08-01T01:42:58;95421.44;;;17.11;100.00
34328;BME280;20588;48.840;10.064;2023-08-01T01:45:24;95426.91;;;17.09;100.00
34328;BME280;20588;48.840;10.064;2023-08-01T01:47:50;95416.00;;;17.07;100.00
34328;BME280;20588;48.840;10.064;2023-08-01T01:50:16;95414.75;;;17.05;100.00
34328;BME280;20588;48.840;10.064;2023-08-01T01:52:46;95412.44;;;17.03;100.00
34328;BME280;20588;48.840;10.064;2023-08-01T01:55:12;95408.06;;;16.99;100.00
34328;BME280;20588;48.840;10.064;2023-08-01T01:57:38;95416.91;;;16.98;100.00
34328;BME280;20588;48.840;10.064;2023-08-01T02:00:05;95423.16;;;16.97;100.00
34328;BME280;20588;48.840;10.064;2023-08-01T02:02:32;95419.53;;;16.98;100.00
34328;BME280;20588;48.840;10.064;2023-08-01T02:04:58;95426.25;;;16.99;100.00
34328;BME280;20588;48.840;10.064;2023-08-01T02:07:24;95418.97;;;17.01;100.00
34328;BME280;20588;48.840;10.064;2023-08-01T02:09:50;95415.31;;;17.02;100.00
34328;BME280;20588;48.840;10.064;2023-08-01T02:12:16;95422.00;;;17.08;100.00
34328;BME280;20588;48.840;10.064;2023-08-01T02:14:42;95441.97;;;17.12;100.00
34328;BME280;20588;48.840;10.064;2023-08-01T02:17:08;95411.81;;;17.11;100.00
34328;BME280;20588;48.840;10.064;2023-08-01T02:19:34;95381.38;;;17.12;100.00
34328;BME280;20588;48.840;10.064;2023-08-01T02:22:00;95365.31;;;17.10;100.00
34328;BME280;20588;48.840;10.064;2023-08-01T02:24:26;95383.00;;;17.08;100.00
34328;BME280;20588;48.840;10.064;2023-08-01T02:26:52;95383.84;;;17.03;100.00
34328;BME280;20588;48.840;10.064;2023-08-01T02:29:18;95363.31;;;17.02;100.00
34328;BME280;20588;48.840;10.064;2023-08-01T02:31:44;95364.66;;;16.99;100.00
34328;BME280;20588;48.840;10.064;2023-08-01T02:34:10;95361.28;;;16.99;100.00
34328;BME280;20588;48.840;10.064;2023-08-01T02:36:36;95351.44;;;16.96;100.00
34328;BME280;20588;48.840;10.064;2023-08-01T02:39:02;95344.19;;;16.93;100.00
34328;BME280;20588;48.840;10.064;2023-08-01T02:41:28;95338.00;;;16.89;100.00
34328;BME280;20588;48.840;10.064;2023-08-01T02:43:55;95340.88;;;16.87;100.00
34328;BME280;20588;48.840;10.064;2023-08-01T02:46:21;95325.53;;;16.86;100.00
34328;BME280;20588;48.840;10.064;2023-08-01T02:48:47;95323.50;;;16.83;100.00
34328;BME280;20588;48.840;10.064;2023-08-01T02:51:14;95325.34;;;16.82;100.00
34328;BME280;20588;48.840;10.064;2023-08-01T02:53:40;95323.31;;;16.79;100.00
34328;BME280;20588;48.840;10.064;2023-08-01T02:56:07;95331.38;;;16.78;100.00
34328;BME280;20588;48.840;10.064;2023-08-01T02:58:35;95329.81;;;16.77;100.00
34328;BME280;20588;48.840;10.064;2023-08-01T03:01:10;95342.03;;;16.76;100.00
34328;BME280;20588;48.840;10.064;2023-08-01T03:03:37;95354.25;;;16.76;100.00
34328;BME280;20588;48.840;10.064;2023-08-01T03:06:04;95338.94;;;16.74;100.00
34328;BME280;20588;48.840;10.064;2023-08-01T03:08:30;95340.00;;;16.73;100.00
34328;BME280;20588;48.840;10.064;2023-08-01T03:10:56;95340.94;;;16.82;100.00
34328;BME280;20588;48.840;10.064;2023-08-01T03:13:22;95328.28;;;16.76;100.00
34328;BME280;20588;48.840;10.064;2023-08-01T03:15:48;95339.16;;;16.78;100.00
34328;BME280;20588;48.840;10.064;2023-08-01T03:18:14;95342.19;;;16.85;100.00
34328;BME280;20588;48.840;10.064;2023-08-01T03:20:40;95339.91;;;16.78;100.00
34328;BME280;20588;48.840;10.064;2023-08-01T03:23:06;95355.78;;;16.77;100.00
34328;BME280;20588;48.840;10.064;2023-08-01T03:25:33;95343.31;;;16.79;100.00
34328;BME280;20588;48.840;10.064;2023-08-01T03:27:59;95337.31;;;16.78;100.00
34328;BME280;20588;48.840;10.064;2023-08-01T03:30:25;95322.63;;;16.92;100.00
34328;BME280;20588;48.840;10.064;2023-08-01T03:32:52;95321.41;;;16.85;100.00
34328;BME280;20588;48.840;10.064;2023-08-01T03:35:18;95306.13;;;16.78;100.00
34328;BME280;20588;48.840;10.064;2023-08-01T03:37:44;95299.69;;;16.76;100.00
34328;BME280;20588;48.840;10.064;2023-08-01T03:40:10;95294.22;;;16.77;100.00
34328;BME280;20588;48.840;10.064;2023-08-01T03:42:39;95302.00;;;16.77;100.00
34328;BME280;20588;48.840;10.064;2023-08-01T03:45:06;95299.63;;;16.81;100.00
34328;BME280;20588;48.840;10.064;2023-08-01T03:47:33;95294.63;;;16.84;100.00
34328;BME280;20588;48.840;10.064;2023-08-01T03:49:59;95288.13;;;16.87;100.00
34328;BME280;20588;48.840;10.064;2023-08-01T03:52:25;95285.47;;;16.92;100.00
34328;BME280;20588;48.840;10.064;2023-08-01T03:54:54;95293.75;;;16.94;100.00
34328;BME280;20588;48.840;10.064;2023-08-01T03:57:21;95289.56;;;16.98;100.00
34328;BME280;20588;48.840;10.064;2023-08-01T03:59:47;95287.44;;;17.00;100.00
34328;BME280;20588;48.840;10.064;2023-08-01T04:02:13;95289.47;;;17.03;100.00
34328;BME280;20588;48.840;10.064;2023-08-01T04:04:39;95287.38;;;17.05;100.00
34328;BME280;20588;48.840;10.064;2023-08-01T04:07:05;95282.38;;;17.08;100.00
34328;BME280;20588;48.840;10.064;2023-08-01T04:09:31;95285.47;;;17.10;100.00
34328;BME280;20588;48.840;10.064;2023-08-01T04:11:57;95282.88;;;17.10;100.00
34328;BME280;20588;48.840;10.064;2023-08-01T04:14:23;95290.66;;;17.10;100.00
34328;BME280;20588;48.840;10.064;2023-08-01T04:16:49;95293.53;;;17.09;100.00
34328;BME280;20588;48.840;10.064;2023-08-01T04:19:15;95291.22;;;17.07;100.00
34328;BME280;20588;48.840;10.064;2023-08-01T04:21:41;95297.75;;;17.05;100.00
34328;BME280;20588;48.840;10.064;2023-08-01T04:24:07;95306.34;;;17.05;100.00
34328;BME280;20588;48.840;10.064;2023-08-01T04:26:33;95301.91;;;17.06;100.00
34328;BME280;20588;48.840;10.064;2023-08-01T04:29:00;95305.00;;;17.08;100.00
34328;BME280;20588;48.840;10.064;2023-08-01T04:31:26;95302.13;;;17.09;100.00
34328;BME280;20588;48.840;10.064;2023-08-01T04:33:52;95299.25;;;17.11;100.00
34328;BME280;20588;48.840;10.064;2023-08-01T04:36:18;95293.19;;;17.15;100.00
34328;BME280;20588;48.840;10.064;2023-08-01T04:38:44;95285.41;;;17.15;100.00
34328;BME280;20588;48.840;10.064;2023-08-01T04:41:10;95271.06;;;17.18;100.00
34328;BME280;20588;48.840;10.064;2023-08-01T04:43:36;95266.34;;;17.20;100.00
34328;BME280;20588;48.840;10.064;2023-08-01T04:46:02;95269.38;;;17.27;100.00
34328;BME280;20588;48.840;10.064;2023-08-01T04:48:28;95253.69;;;17.32;100.00
34328;BME280;20588;48.840;10.064;2023-08-01T04:50:54;95255.03;;;17.48;100.00
34328;BME280;20588;48.840;10.064;2023-08-01T04:53:20;95244.63;;;17.48;100.00
34328;BME280;20588;48.840;10.064;2023-08-01T04:55:47;95219.91;;;17.50;100.00
34328;BME280;20588;48.840;10.064;2023-08-01T04:58:13;95196.88;;;17.57;100.00
34328;BME280;20588;48.840;10.064;2023-08-01T05:00:43;95173.69;;;17.74;100.00
34328;BME280;20588;48.840;10.064;2023-08-01T05:03:09;95177.81;;;17.75;100.00
34328;BME280;20588;48.840;10.064;2023-08-01T05:05:35;95187.38;;;17.80;100.00
34328;BME280;20588;48.840;10.064;2023-08-01T05:08:01;95188.94;;;17.81;100.00
34328;BME280;20588;48.840;10.064;2023-08-01T05:10:27;95178.91;;;17.88;100.00
34328;BME280;20588;48.840;10.064;2023-08-01T05:12:53;95171.75;;;17.93;100.00
34328;BME280;20588;48.840;10.064;2023-08-01T05:15:19;95159.44;;;17.99;100.00
34328;BME280;20588;48.840;10.064;2023-08-01T05:17:45;95153.72;;;18.11;100.00
34328;BME280;20588;48.840;10.064;2023-08-01T05:20:11;95157.28;;;18.15;100.00
34328;BME280;20588;48.840;10.064;2023-08-01T05:22:37;95170.31;;;18.15;100.00
34328;BME280;20588;48.840;10.064;2023-08-01T05:25:04;95170.81;;;18.17;100.00
34328;BME280;20588;48.840;10.064;2023-08-01T05:27:30;95177.53;;;18.18;100.00
34328;BME280;20588;48.840;10.064;2023-08-01T05:29:57;95192.41;;;18.17;100.00
34328;BME280;20588;48.840;10.064;2023-08-01T05:32:23;95196.28;;;18.20;100.00
34328;BME280;20588;48.840;10.064;2023-08-01T05:34:49;95204.56;;;18.22;100.00
34328;BME280;20588;48.840;10.064;2023-08-01T05:37:15;95207.34;;;18.25;100.00
34328;BME280;20588;48.840;10.064;2023-08-01T05:39:41;95207.75;;;18.32;100.00
34328;BME280;20588;48.840;10.064;2023-08-01T05:42:07;95213.84;;;18.41;100.00
34328;BME280;20588;48.840;10.064;2023-08-01T05:44:34;95218.28;;;18.54;100.00
34328;BME280;20588;48.840;10.064;2023-08-01T05:47:00;95213.16;;;18.63;100.00
34328;BME280;20588;48.840;10.064;2023-08-01T05:49:26;95223.47;;;18.68;100.00
34328;BME280;20588;48.840;10.064;2023-08-01T05:51:54;95239.00;;;18.73;100.00
34328;BME280;20588;48.840;10.064;2023-08-01T05:54:20;95236.41;;;18.73;100.00
34328;BME280;20588;48.840;10.064;2023-08-01T05:56:46;95237.66;;;18.75;100.00
34328;BME280;20588;48.840;10.064;2023-08-01T05:59:12;95244.72;;;18.75;100.00
34328;BME280;20588;48.840;10.064;2023-08-01T06:01:38;95257.47;;;18.76;100.00
34328;BME280;20588;48.840;10.064;2023-08-01T06:04:04;95253.00;;;18.77;100.00
34328;BME280;20588;48.840;10.064;2023-08-01T06:06:30;95247.78;;;18.77;100.00
34328;BME280;20588;48.840;10.064;2023-08-01T06:08:56;95238.13;;;18.77;100.00
34328;BME280;20588;48.840;10.064;2023-08-01T06:11:22;95236.41;;;18.73;100.00
34328;BME280;20588;48.840;10.064;2023-08-01T06:13:49;95219.22;;;18.72;100.00
34328;BME280;20588;48.840;10.064;2023-08-01T06:16:15;95225.78;;;18.69;100.00
34328;BME280;20588;48.840;10.064;2023-08-01T06:18:41;95218.06;;;18.78;100.00
34328;BME280;20588;48.840;10.064;2023-08-01T06:21:07;95223.16;;;18.69;100.00
34328;BME280;20588;48.840;10.064;2023-08-01T06:23:33;95220.56;;;18.69;100.00
34328;BME280;20588;48.840;10.064;2023-08-01T06:25:59;95217.91;;;18.96;100.00
34328;BME280;20588;48.840;10.064;2023-08-01T06:28:25;95225.34;;;18.89;100.00
34328;BME280;20588;48.840;10.064;2023-08-01T06:30:51;95222.84;;;18.84;100.00
34328;BME280;20588;48.840;10.064;2023-08-01T06:33:17;95210.31;;;18.86;100.00
34328;BME280;20588;48.840;10.064;2023-08-01T06:35:43;95217.59;;;19.11;100.00
34328;BME280;20588;48.840;10.064;2023-08-01T06:38:09;95221.88;;;18.94;100.00
34328;BME280;20588;48.840;10.064;2023-08-01T06:40:35;95210.50;;;18.90;100.00
34328;BME280;20588;48.840;10.064;2023-08-01T06:43:01;95212.06;;;18.77;100.00
34328;BME280;20588;48.840;10.064;2023-08-01T06:45:27;95211.00;;;18.78;100.00
34328;BME280;20588;48.840;10.064;2023-08-01T06:47:53;95203.56;;;18.85;100.00
34328;BME280;20588;48.840;10.064;2023-08-01T06:50:19;95201.16;;;18.75;100.00
34328;BME280;20588;48.840;10.064;2023-08-01T06:52:45;95203.00;;;18.75;100.00
34328;BME280;20588;48.840;10.064;2023-08-01T06:55:13;95207.66;;;18.64;100.00
34328;BME280;20588;48.840;10.064;2023-08-01T06:57:39;95230.25;;;18.55;100.00
34328;BME280;20588;48.840;10.064;2023-08-01T07:00:06;95239.13;;;18.54;100.00
34328;BME280;20588;48.840;10.064;2023-08-01T07:02:32;95258.63;;;18.57;100.00
34328;BME280;20588;48.840;10.064;2023-08-01T07:04:58;95266.63;;;18.60;100.00
34328;BME280;20588;48.840;10.064;2023-08-01T07:07:24;95283.34;;;18.59;100.00
34328;BME280;20588;48.840;10.064;2023-08-01T07:09:50;95291.94;;;18.60;100.00
34328;BME280;20588;48.840;10.064;2023-08-01T07:12:16;95292.00;;;18.41;100.00
34328;BME280;20588;48.840;10.064;2023-08-01T07:14:42;95296.03;;;18.34;100.00
34328;BME280;20588;48.840;10.064;2023-08-01T07:17:09;95282.41;;;18.23;100.00
34328;BME280;20588;48.840;10.064;2023-08-01T07:19:35;95291.53;;;18.07;100.00
34328;BME280;20588;48.840;10.064;2023-08-01T07:22:01;95307.34;;;17.97;100.00
34328;BME280;20588;48.840;10.064;2023-08-01T07:24:27;95301.81;;;17.85;100.00
34328;BME280;20588;48.840;10.064;2023-08-01T07:26:53;95307.19;;;17.75;100.00
34328;BME280;20588;48.840;10.064;2023-08-01T07:29:19;95321.34;;;17.69;100.00
34328;BME280;20588;48.840;10.064;2023-08-01T07:31:45;95319.88;;;17.63;100.00
34328;BME280;20588;48.840;10.064;2023-08-01T07:34:11;95318.31;;;17.62;100.00
34328;BME280;20588;48.840;10.064;2023-08-01T07:36:37;95291.16;;;17.49;100.00
34328;BME280;20588;48.840;10.064;2023-08-01T07:39:04;95279.00;;;17.45;100.00
34328;BME280;20588;48.840;10.064;2023-08-01T07:41:30;95262.69;;;17.39;100.00
34328;BME280;20588;48.840;10.064;2023-08-01T07:43:56;95269.13;;;17.42;100.00
34328;BME280;20588;48.840;10.064;2023-08-01T07:46:22;95265.00;;;17.41;100.00
34328;BME280;20588;48.840;10.064;2023-08-01T07:48:48;95266.28;;;17.43;100.00
34328;BME280;20588;48.840;10.064;2023-08-01T07:51:15;95276.47;;;17.40;100.00
34328;BME280;20588;48.840;10.064;2023-08-01T07:53:41;95266.53;;;17.42;100.00
34328;BME280;20588;48.840;10.064;2023-08-01T07:56:07;95259.28;;;17.44;100.00
34328;BME280;20588;48.840;10.064;2023-08-01T07:58:34;95264.41;;;17.49;100.00
34328;BME280;20588;48.840;10.064;2023-08-01T08:01:07;95265.16;;;17.49;100.00
34328;BME280;20588;48.840;10.064;2023-08-01T08:03:33;95270.00;;;17.56;100.00
34328;BME280;20588;48.840;10.064;2023-08-01T08:05:59;95307.97;;;17.57;100.00
34328;BME280;20588;48.840;10.064;2023-08-01T08:08:25;95354.88;;;17.52;100.00
34328;BME280;20588;48.840;10.064;2023-08-01T08:10:52;95346.53;;;17.55;100.00
34328;BME280;20588;48.840;10.064;2023-08-01T08:13:18;95311.91;;;17.54;100.00
34328;BME280;20588;48.840;10.064;2023-08-01T08:15:45;95302.72;;;17.43;100.00
34328;BME280;20588;48.840;10.064;2023-08-01T08:18:12;95297.13;;;17.31;100.00
34328;BME280;20588;48.840;10.064;2023-08-01T08:20:42;95286.03;;;17.26;100.00
34328;BME280;20588;48.840;10.064;2023-08-01T08:23:09;95298.06;;;17.22;100.00
34328;BME280;20588;48.840;10.064;2023-08-01T08:25:36;95273.09;;;17.21;100.00
34328;BME280;20588;48.840;10.064;2023-08-01T08:28:02;95277.38;;;17.12;100.00
34328;BME280;20588;48.840;10.064;2023-08-01T08:30:28;95271.44;;;17.11;100.00
34328;BME280;20588;48.840;10.064;2023-08-01T08:32:54;95279.38;;;17.20;100.00
34328;BME280;20588;48.840;10.064;2023-08-01T08:35:20;95282.25;;;17.18;100.00
34328;BME280;20588;48.840;10.064;2023-08-01T08:37:46;95276.81;;;17.15;100.00
34328;BME280;20588;48.840;10.064;2023-08-01T08:40:13;95281.81;;;17.11;100.00
34328;BME280;20588;48.840;10.064;2023-08-01T08:42:40;95280.25;;;17.10;100.00
34328;BME280;20588;48.840;10.064;2023-08-01T08:45:06;95284.72;;;17.10;100.00
34328;BME280;20588;48.840;10.064;2023-08-01T08:47:38;95272.75;;;17.09;100.00
34328;BME280;20588;48.840;10.064;2023-08-01T08:50:08;95265.94;;;17.13;100.00
34328;BME280;20588;48.840;10.064;2023-08-01T08:52:34;95261.38;;;17.23;100.00
34328;BME280;20588;48.840;10.064;2023-08-01T08:55:02;95272.81;;;17.41;100.00
34328;BME280;20588;48.840;10.064;2023-08-01T08:57:29;95273.38;;;17.56;100.00
34328;BME280;20588;48.840;10.064;2023-08-01T08:59:56;95279.78;;;17.64;100.00
34328;BME280;20588;48.840;10.064;2023-08-01T09:02:24;95268.78;;;17.67;100.00
34328;BME280;20588;48.840;10.064;2023-08-01T09:04:50;95277.66;;;17.66;100.00
34328;BME280;20588;48.840;10.064;2023-08-01T09:07:17;95272.53;;;17.61;100.00
34328;BME280;20588;48.840;10.064;2023-08-01T09:09:45;95268.53;;;17.50;100.00
34328;BME280;20588;48.840;10.064;2023-08-01T09:12:12;95286.53;;;17.46;100.00
34328;BME280;20588;48.840;10.064;2023-08-01T09:14:38;95281.13;;;17.43;100.00
34328;BME280;20588;48.840;10.064;2023-08-01T09:17:09;95285.97;;;17.49;100.00
34328;BME280;20588;48.840;10.064;2023-08-01T09:19:35;95290.19;;;17.45;100.00
34328;BME280;20588;48.840;10.064;2023-08-01T09:22:02;95286.13;;;17.58;100.00
34328;BME280;20588;48.840;10.064;2023-08-01T09:24:28;95268.16;;;17.75;100.00
34328;BME280;20588;48.840;10.064;2023-08-01T09:27:02;95269.94;;;17.93;100.00
34328;BME280;20588;48.840;10.064;2023-08-01T09:29:30;95266.28;;;18.08;100.00
34328;BME280;20588;48.840;10.064;2023-08-01T09:31:58;95268.03;;;18.26;100.00
34328;BME280;20588;48.840;10.064;2023-08-01T09:34:26;95263.28;;;18.46;100.00
34328;BME280;20588;48.840;10.064;2023-08-01T09:36:58;95264.50;;;18.62;100.00
34328;BME280;20588;48.840;10.064;2023-08-01T09:39:24;95267.78;;;18.68;100.00
34328;BME280;20588;48.840;10.064;2023-08-01T09:42:00;95260.06;;;18.76;100.00
34328;BME280;20588;48.840;10.064;2023-08-01T09:44:28;95258.59;;;18.84;100.00
34328;BME280;20588;48.840;10.064;2023-08-01T09:47:02;95257.59;;;18.93;100.00
34328;BME280;20588;48.840;10.064;2023-08-01T09:49:29;95258.88;;;18.96;100.00
34328;BME280;20588;48.840;10.064;2023-08-01T09:51:56;95257.00;;;18.96;100.00
34328;BME280;20588;48.840;10.064;2023-08-01T09:54:23;95261.78;;;18.94;100.00
34328;BME280;20588;48.840;10.064;2023-08-01T09:56:52;95260.69;;;18.95;100.00
34328;BME280;20588;48.840;10.064;2023-08-01T09:59:23;95255.41;;;18.87;100.00
34328;BME280;20588;48.840;10.064;2023-08-01T10:01:51;95267.66;;;18.86;100.00
34328;BME280;20588;48.840;10.064;2023-08-01T10:04:29;95275.56;;;18.81;100.00
34328;BME280;20588;48.840;10.064;2023-08-01T10:07:02;95268.75;;;18.72;100.00
34328;BME280;20588;48.840;10.064;2023-08-01T10:09:31;95275.78;;;18.71;100.00
34328;BME280;20588;48.840;10.064;2023-08-01T10:12:00;95283.72;;;18.66;100.00
34328;BME280;20588;48.840;10.064;2023-08-01T10:14:26;95292.00;;;18.68;100.00
34328;BME280;20588;48.840;10.064;2023-08-01T10:16:54;95284.78;;;18.65;100.00
34328;BME280;20588;48.840;10.064;2023-08-01T10:19:20;95287.97;;;18.76;100.00
34328;BME280;20588;48.840;10.064;2023-08-01T10:21:48;95290.28;;;18.77;100.00
34328;BME280;20588;48.840;10.064;2023-08-01T10:24:15;95285.03;;;19.04;100.00
34328;BME280;20588;48.840;10.064;2023-08-01T10:26:45;95291.56;;;19.29;100.00
34328;BME280;20588;48.840;10.064;2023-08-01T10:29:12;95287.63;;;19.53;100.00
34328;BME280;20588;48.840;10.064;2023-08-01T10:31:38;95298.75;;;19.67;100.00
34328;BME280;20588;48.840;10.064;2023-08-01T10:34:13;95294.97;;;19.73;100.00
34328;BME280;20588;48.840;10.064;2023-08-01T10:36:39;95287.88;;;19.65;100.00
34328;BME280;20588;48.840;10.064;2023-08-01T10:39:05;95286.06;;;19.52;100.00
34328;BME280;20588;48.840;10.064;2023-08-01T10:41:35;95283.59;;;19.47;100.00
34328;BME280;20588;48.840;10.064;2023-08-01T10:44:13;95283.59;;;19.47;100.00
34328;BME280;20588;48.840;10.064;2023-08-01T10:49:40;95279.91;;;19.48;100.00
34328;BME280;20588;48.840;10.064;2023-08-01T10:52:20;95286.66;;;19.49;100.00
34328;BME280;20588;48.840;10.064;2023-08-01T10:54:47;95290.00;;;19.41;100.00
34328;BME280;20588;48.840;10.064;2023-08-01T10:57:21;95274.91;;;19.38;100.00
34328;BME280;20588;48.840;10.064;2023-08-01T10:59:49;95285.47;;;19.33;100.00
34328;BME280;20588;48.840;10.064;2023-08-01T11:02:21;95295.72;;;19.30;100.00
34328;BME280;20588;48.840;10.064;2023-08-01T11:05:07;95292.50;;;19.33;100.00
34328;BME280;20588;48.840;10.064;2023-08-01T11:07:34;95286.78;;;19.44;100.00
34328;BME280;20588;48.840;10.064;2023-08-01T11:10:11;95281.50;;;19.58;100.00
34328;BME280;20588;48.840;10.064;2023-08-01T11:12:39;95282.25;;;19.58;100.00
34328;BME280;20588;48.840;10.064;2023-08-01T11:15:10;95276.81;;;19.68;100.00
34328;BME280;20588;48.840;10.064;2023-08-01T11:17:37;95287.13;;;19.73;100.00
34328;BME280;20588;48.840;10.064;2023-08-01T11:20:09;95282.03;;;19.68;100.00
34328;BME280;20588;48.840;10.064;2023-08-01T11:22:36;95281.44;;;19.94;100.00
34328;BME280;20588;48.840;10.064;2023-08-01T11:25:04;95292.41;;;20.04;100.00
34328;BME280;20588;48.840;10.064;2023-08-01T11:27:30;95292.09;;;20.28;100.00
34328;BME280;20588;48.840;10.064;2023-08-01T11:29:56;95297.47;;;20.62;100.00
34328;BME280;20588;48.840;10.064;2023-08-01T11:32:36;95290.03;;;20.94;100.00
34328;BME280;20588;48.840;10.064;2023-08-01T11:35:03;95285.91;;;21.02;99.05
34328;BME280;20588;48.840;10.064;2023-08-01T11:37:30;95287.94;;;21.39;99.71
34328;BME280;20588;48.840;10.064;2023-08-01T11:39:57;95286.09;;;21.39;94.59
34328;BME280;20588;48.840;10.064;2023-08-01T11:42:24;95283.94;;;21.42;96.27
34328;BME280;20588;48.840;10.064;2023-08-01T11:44:50;95307.66;;;21.28;96.48
34328;BME280;20588;48.840;10.064;2023-08-01T11:47:17;95309.75;;;21.00;99.09
34328;BME280;20588;48.840;10.064;2023-08-01T11:49:47;95320.88;;;20.67;100.00
34328;BME280;20588;48.840;10.064;2023-08-01T11:52:27;95298.09;;;20.28;100.00
34328;BME280;20588;48.840;10.064;2023-08-01T11:54:54;95295.97;;;19.86;100.00
34328;BME280;20588;48.840;10.064;2023-08-01T11:57:21;95304.28;;;19.66;100.00
34328;BME280;20588;48.840;10.064;2023-08-01T11:59:52;95326.28;;;19.51;100.00
34328;BME280;20588;48.840;10.064;2023-08-01T12:02:26;95316.78;;;19.33;100.00
34328;BME280;20588;48.840;10.064;2023-08-01T12:04:54;95316.00;;;19.33;100.00
34328;BME280;20588;48.840;10.064;2023-08-01T12:07:20;95318.47;;;19.96;100.00
34328;BME280;20588;48.840;10.064;2023-08-01T12:10:00;95311.66;;;21.34;100.00
34328;BME280;20588;48.840;10.064;2023-08-01T12:12:29;95320.03;;;22.42;95.64
34328;BME280;20588;48.840;10.064;2023-08-01T12:14:55;95317.06;;;23.48;89.27
34328;BME280;20588;48.840;10.064;2023-08-01T12:17:22;95316.47;;;24.16;79.52
34328;BME280;20588;48.840;10.064;2023-08-01T12:19:48;95315.81;;;24.63;79.43
34328;BME280;20588;48.840;10.064;2023-08-01T12:22:14;95328.03;;;24.80;75.78
34328;BME280;20588;48.840;10.064;2023-08-01T12:24:41;95331.97;;;25.34;73.33
34328;BME280;20588;48.840;10.064;2023-08-01T12:27:08;95325.63;;;25.63;69.93
34328;BME280;20588;48.840;10.064;2023-08-01T12:29:34;95326.41;;;26.03;67.50
34328;BME280;20588;48.840;10.064;2023-08-01T12:32:02;95334.56;;;25.86;62.47
34328;BME280;20588;48.840;10.064;2023-08-01T12:34:28;95336.41;;;25.70;61.95
34328;BME280;20588;48.840;10.064;2023-08-01T12:36:54;95338.00;;;25.86;58.90
34328;BME280;20588;48.840;10.064;2023-08-01T12:39:21;95356.38;;;26.10;59.94
34328;BME280;20588;48.840;10.064;2023-08-01T12:41:47;95356.09;;;26.27;57.37